createdAt,value
2022-09-29T00:00:32.143Z,100.00
2022-09-29T00:02:59.892Z,100.00
2022-09-29T00:05:27.604Z,100.00
2022-09-29T00:07:55.359Z,100.00
2022-09-29T00:10:24.779Z,100.00
2022-09-29T00:12:52.522Z,100.00
2022-09-29T00:15:20.286Z,100.00
2022-09-29T00:18:12.266Z,100.00
2022-09-29T00:20:35.861Z,80.09
2022-09-29T00:23:03.811Z,100.00
2022-09-29T00:25:33.000Z,94.52
2022-09-29T00:28:00.735Z,100.00
2022-09-29T00:30:28.989Z,100.00
2022-09-29T00:32:56.778Z,100.00
2022-09-29T00:35:24.529Z,100.00
2022-09-29T00:37:52.305Z,100.00
2022-09-29T00:40:20.165Z,100.00
2022-09-29T00:42:49.289Z,92.18
2022-09-29T00:45:20.410Z,87.37
2022-09-29T00:47:54.555Z,82.88
2022-09-29T00:50:25.436Z,81.69
2022-09-29T00:52:55.285Z,75.93
2022-09-29T00:55:27.351Z,71.93
2022-09-29T00:57:59.554Z,75.27
2022-09-29T01:00:27.910Z,100.00
2022-09-29T01:02:59.069Z,100.00
2022-09-29T01:05:32.548Z,100.00
2022-09-29T01:08:04.147Z,100.00
2022-09-29T01:10:32.209Z,100.00
2022-09-29T01:13:01.793Z,100.00
2022-09-29T01:15:30.415Z,100.00
2022-09-29T01:17:58.264Z,100.00
2022-09-29T01:20:26.501Z,100.00
2022-09-29T01:23:23.415Z,100.00
2022-09-29T01:26:21.207Z,100.00
2022-09-29T01:29:03.962Z,100.00
2022-09-29T01:31:36.777Z,100.00
2022-09-29T01:34:08.221Z,100.00
2022-09-29T01:36:42.627Z,93.82
2022-09-29T01:39:18.608Z,100.00
2022-09-29T01:41:51.110Z,98.28
2022-09-29T01:44:24.037Z,100.00
2022-09-29T01:46:55.186Z,100.00
2022-09-29T01:49:23.863Z,100.00
2022-09-29T01:51:54.254Z,100.00
2022-09-29T01:54:26.156Z,100.00
2022-09-29T01:56:57.675Z,100.00
2022-09-29T01:59:29.882Z,100.00
2022-09-29T02:02:01.865Z,100.00
2022-09-29T02:04:33.481Z,100.00
2022-09-29T02:07:05.042Z,100.00
2022-09-29T02:09:36.332Z,100.00
2022-09-29T02:12:07.140Z,100.00
2022-09-29T02:14:38.498Z,100.00
2022-09-29T02:17:11.949Z,100.00
2022-09-29T02:19:42.167Z,100.00
2022-09-29T02:22:09.859Z,100.00
2022-09-29T02:24:37.614Z,100.00
2022-09-29T02:27:07.069Z,100.00
2022-09-29T02:29:36.684Z,100.00
2022-09-29T02:32:05.290Z,100.00
2022-09-29T02:34:37.720Z,100.00
2022-09-29T02:37:11.616Z,100.00
2022-09-29T02:39:44.953Z,100.00
2022-09-29T02:42:20.299Z,100.00
2022-09-29T02:44:56.533Z,100.00
2022-09-29T02:47:38.040Z,100.00
2022-09-29T02:50:28.452Z,100.00
2022-09-29T02:52:59.685Z,100.00
2022-09-29T02:55:31.247Z,100.00
2022-09-29T02:58:03.112Z,100.00
2022-09-29T03:00:31.556Z,100.00
2022-09-29T03:02:59.615Z,100.00
2022-09-29T03:05:28.788Z,100.00
2022-09-29T03:07:56.553Z,100.00
2022-09-29T03:10:28.058Z,100.00
2022-09-29T03:12:57.874Z,100.00
2022-09-29T03:15:25.646Z,100.00
2022-09-29T03:17:56.569Z,100.00
2022-09-29T03:20:24.354Z,100.00
2022-09-29T03:22:56.616Z,100.00
2022-09-29T03:25:24.999Z,100.00
2022-09-29T03:27:53.083Z,100.00
2022-09-29T03:30:22.775Z,100.00
2022-09-29T03:32:50.689Z,100.00
2022-09-29T03:35:18.427Z,100.00
2022-09-29T03:37:46.168Z,100.00
2022-09-29T03:40:15.285Z,100.00
2022-09-29T03:42:43.048Z,100.00
2022-09-29T03:45:11.250Z,100.00
2022-09-29T03:47:39.277Z,100.00
2022-09-29T03:50:07.882Z,100.00
2022-09-29T03:52:35.745Z,93.82
2022-09-29T03:55:03.593Z,100.00
2022-09-29T03:57:32.670Z,92.57
2022-09-29T04:00:00.491Z,98.13
2022-09-29T04:02:28.465Z,100.00
2022-09-29T04:04:56.306Z,95.70
2022-09-29T04:07:24.032Z,96.00
2022-09-29T04:09:51.800Z,100.00
2022-09-29T04:12:19.499Z,100.00
2022-09-29T04:14:48.604Z,82.27
2022-09-29T04:17:16.432Z,89.17
2022-09-29T04:19:44.338Z,96.36
2022-09-29T04:22:12.106Z,91.95
2022-09-29T04:24:40.276Z,100.00
2022-09-29T04:27:08.071Z,92.51
2022-09-29T04:29:36.156Z,100.00
2022-09-29T04:32:06.442Z,100.00
2022-09-29T04:34:34.395Z,96.81
2022-09-29T04:37:02.500Z,86.00
2022-09-29T04:39:30.210Z,90.71
2022-09-29T04:41:57.960Z,85.27
2022-09-29T04:44:26.084Z,100.00
2022-09-29T04:46:53.741Z,84.23
2022-09-29T04:49:22.836Z,84.76
2022-09-29T04:51:50.569Z,98.63
2022-09-29T04:54:18.244Z,74.62
2022-09-29T04:56:45.983Z,75.39
2022-09-29T04:59:14.068Z,67.68
2022-09-29T05:01:41.812Z,67.76
2022-09-29T05:04:10.715Z,76.25
2022-09-29T05:06:40.023Z,73.31
2022-09-29T05:09:08.158Z,76.16
2022-09-29T05:11:35.989Z,78.82
2022-09-29T05:14:03.777Z,91.38
2022-09-29T05:16:31.766Z,100.00
2022-09-29T05:18:59.553Z,100.00
2022-09-29T05:21:28.964Z,90.82
2022-09-29T05:23:58.643Z,85.60
2022-09-29T05:26:26.478Z,85.67
2022-09-29T05:28:54.231Z,97.46
2022-09-29T05:31:22.016Z,86.74
2022-09-29T05:33:49.854Z,100.00
2022-09-29T05:36:17.766Z,100.00
2022-09-29T05:38:45.445Z,96.55
2022-09-29T05:41:16.195Z,100.00
2022-09-29T05:43:44.171Z,100.00
2022-09-29T05:46:11.996Z,88.12
2022-09-29T05:48:39.830Z,95.15
2022-09-29T05:51:10.240Z,92.08
2022-09-29T05:53:38.453Z,100.00
2022-09-29T05:56:07.687Z,96.03
2022-09-29T05:58:37.550Z,99.83
2022-09-29T06:01:08.710Z,100.00
2022-09-29T06:03:37.167Z,100.00
2022-09-29T06:06:10.881Z,100.00
2022-09-29T06:08:38.734Z,89.93
2022-09-29T06:11:07.658Z,93.86
2022-09-29T06:13:39.024Z,100.00
2022-09-29T06:16:07.404Z,97.84
2022-09-29T06:18:35.346Z,100.00
2022-09-29T06:21:04.210Z,90.25
2022-09-29T06:23:31.956Z,100.00
2022-09-29T06:26:01.967Z,100.00
2022-09-29T06:28:30.164Z,95.64
2022-09-29T06:31:01.848Z,100.00
2022-09-29T06:33:29.781Z,100.00
2022-09-29T06:36:15.764Z,99.78
2022-09-29T06:38:43.662Z,100.00
2022-09-29T06:41:11.386Z,100.00
2022-09-29T06:43:39.121Z,100.00
2022-09-29T06:46:08.342Z,100.00
2022-09-29T06:48:36.486Z,100.00
2022-09-29T06:51:10.210Z,100.00
2022-09-29T06:53:39.179Z,100.00
2022-09-29T06:56:08.985Z,100.00
2022-09-29T06:58:36.824Z,100.00
2022-09-29T07:01:06.553Z,100.00
2022-09-29T07:03:36.248Z,100.00
2022-09-29T07:06:20.658Z,96.33
2022-09-29T07:08:48.721Z,100.00
2022-09-29T07:11:18.225Z,100.00
2022-09-29T07:13:45.925Z,95.84
2022-09-29T07:16:15.365Z,81.10
2022-09-29T07:18:44.794Z,68.88
2022-09-29T07:21:16.690Z,69.97
2022-09-29T07:23:44.970Z,100.00
2022-09-29T07:26:13.003Z,83.78
2022-09-29T07:28:41.209Z,100.00
2022-09-29T07:31:14.769Z,82.01
2022-09-29T07:33:44.830Z,98.20
2022-09-29T07:36:12.714Z,95.06
2022-09-29T07:38:40.566Z,88.86
2022-09-29T07:41:10.146Z,80.21
2022-09-29T07:43:37.984Z,81.61
2022-09-29T07:46:06.746Z,92.24
2022-09-29T07:48:36.258Z,80.33
2022-09-29T07:51:07.230Z,81.52
2022-09-29T07:53:36.204Z,58.39
2022-09-29T07:56:04.683Z,73.86
2022-09-29T07:58:33.341Z,88.74
2022-09-29T08:01:01.781Z,59.42
2022-09-29T08:03:30.338Z,66.39
2022-09-29T08:05:59.214Z,69.25
2022-09-29T08:08:28.418Z,78.08
2022-09-29T08:11:02.976Z,64.44
2022-09-29T08:13:31.243Z,81.12
2022-09-29T08:16:00.305Z,88.28
2022-09-29T08:18:28.661Z,94.43
2022-09-29T08:20:58.780Z,74.73
2022-09-29T08:23:31.760Z,71.11
2022-09-29T08:26:02.784Z,54.48
2022-09-29T08:28:32.446Z,94.88
2022-09-29T08:31:04.452Z,73.27
2022-09-29T08:33:33.072Z,68.03
2022-09-29T08:36:03.670Z,64.60
2022-09-29T08:38:33.417Z,89.28
2022-09-29T08:41:05.085Z,83.75
2022-09-29T08:43:35.526Z,68.33
2022-09-29T08:46:07.338Z,61.07
2022-09-29T08:48:51.696Z,56.73
2022-09-29T08:51:38.337Z,58.11
2022-09-29T08:54:20.212Z,58.61
2022-09-29T08:56:53.838Z,53.38
2022-09-29T08:59:21.936Z,53.88
2022-09-29T09:02:01.075Z,61.10
2022-09-29T09:05:00.478Z,60.71
2022-09-29T09:07:35.380Z,49.50
2022-09-29T09:10:15.355Z,73.18
2022-09-29T09:13:03.720Z,66.24
2022-09-29T09:15:39.680Z,89.21
2022-09-29T09:18:22.489Z,65.79
2022-09-29T09:20:53.795Z,52.40
2022-09-29T09:23:24.428Z,62.02
2022-09-29T09:25:55.681Z,52.33
2022-09-29T09:28:27.575Z,53.29
2022-09-29T09:30:58.029Z,55.55
2022-09-29T09:33:31.832Z,51.74
2022-09-29T09:36:03.740Z,56.93
2022-09-29T09:38:42.291Z,48.85
2022-09-29T09:41:11.472Z,54.07
2022-09-29T09:43:42.833Z,51.27
2022-09-29T09:46:15.654Z,52.96
2022-09-29T09:48:46.200Z,55.44
2022-09-29T09:51:31.672Z,65.64
2022-09-29T09:54:03.608Z,63.28
2022-09-29T09:56:43.544Z,70.15
2022-09-29T09:59:23.192Z,76.32
2022-09-29T10:01:51.036Z,58.29
2022-09-29T10:04:18.847Z,65.49
2022-09-29T10:06:46.550Z,55.81
2022-09-29T10:09:15.803Z,52.72
2022-09-29T10:11:46.543Z,82.04
2022-09-29T10:14:16.459Z,61.10
2022-09-29T10:16:48.862Z,62.48
2022-09-29T10:19:22.493Z,48.37
2022-09-29T10:21:50.675Z,51.53
2022-09-29T10:24:26.076Z,45.97
2022-09-29T10:29:27.027Z,48.87
2022-09-29T10:32:04.154Z,51.62
2022-09-29T10:34:33.601Z,47.58
2022-09-29T10:37:03.946Z,41.72
2022-09-29T10:39:40.222Z,43.53
2022-09-29T10:42:22.503Z,41.52
2022-09-29T10:44:52.714Z,39.94
2022-09-29T10:47:22.362Z,37.37
2022-09-29T10:50:09.225Z,43.06
2022-09-29T10:52:37.695Z,41.77
2022-09-29T10:55:06.407Z,40.77
2022-09-29T10:57:37.274Z,39.02
2022-09-29T11:00:07.084Z,43.27
2022-09-29T11:02:37.339Z,41.49
2022-09-29T11:05:13.112Z,38.18
2022-09-29T11:07:45.232Z,39.85
2022-09-29T11:10:28.710Z,35.89
2022-09-29T11:12:59.234Z,37.83
2022-09-29T11:15:28.873Z,40.94
2022-09-29T11:17:57.562Z,41.48
2022-09-29T11:20:31.144Z,45.76
2022-09-29T11:23:20.841Z,44.65
2022-09-29T11:25:56.458Z,38.77
2022-09-29T11:28:39.838Z,36.28
2022-09-29T11:31:18.614Z,38.88
2022-09-29T11:33:55.067Z,36.12
2022-09-29T11:36:27.539Z,35.53
2022-09-29T11:39:03.701Z,34.12
2022-09-29T11:41:55.528Z,32.88
2022-09-29T11:44:34.012Z,33.30
2022-09-29T11:47:07.306Z,33.64
2022-09-29T11:49:46.171Z,37.64
2022-09-29T11:52:25.670Z,38.18
2022-09-29T11:55:03.943Z,40.28
2022-09-29T11:57:44.273Z,36.78
2022-09-29T12:00:14.598Z,41.66
2022-09-29T12:03:08.053Z,44.50
2022-09-29T12:05:46.629Z,38.07
2022-09-29T12:08:22.179Z,39.73
2022-09-29T12:10:55.416Z,42.47
2022-09-29T12:13:32.518Z,40.32
2022-09-29T12:16:04.409Z,40.76
2022-09-29T12:18:36.534Z,40.19
2022-09-29T12:21:04.738Z,38.09
2022-09-29T12:23:37.918Z,34.31
2022-09-29T12:26:09.174Z,37.48
2022-09-29T12:28:42.107Z,33.85
2022-09-29T12:31:14.231Z,33.72
2022-09-29T12:33:44.214Z,35.55
2022-09-29T12:36:43.388Z,36.19
2022-09-29T12:39:16.614Z,36.23
2022-09-29T12:41:49.252Z,37.00
2022-09-29T12:44:22.271Z,37.18
2022-09-29T12:46:54.480Z,35.72
2022-09-29T12:49:24.772Z,35.73
2022-09-29T12:51:53.404Z,36.60
2022-09-29T12:54:24.550Z,35.16
2022-09-29T12:56:55.838Z,34.77
2022-09-29T12:59:30.089Z,36.42
2022-09-29T13:02:05.515Z,34.21
2022-09-29T13:04:50.472Z,35.13
2022-09-29T13:07:39.602Z,31.72
2022-09-29T13:10:19.415Z,31.85
2022-09-29T13:13:10.294Z,31.37
2022-09-29T13:15:52.107Z,31.77
2022-09-29T13:18:49.080Z,34.91
2022-09-29T13:21:31.385Z,33.26
2022-09-29T13:24:22.673Z,28.18
2022-09-29T13:27:01.910Z,26.57
2022-09-29T13:29:32.270Z,28.28
2022-09-29T13:32:00.571Z,23.95
2022-09-29T13:34:33.194Z,25.51
2022-09-29T13:37:08.665Z,25.45
2022-09-29T13:39:36.617Z,24.99
2022-09-29T13:42:43.905Z,24.11
2022-09-29T13:45:47.422Z,27.16
2022-09-29T13:48:49.833Z,27.30
2022-09-29T13:51:44.234Z,25.13
2022-09-29T13:54:35.344Z,27.34
2022-09-29T13:57:08.257Z,27.05
2022-09-29T13:59:39.569Z,28.87
2022-09-29T14:02:20.556Z,28.29
2022-09-29T14:04:53.431Z,28.45
2022-09-29T14:10:22.333Z,26.74
2022-09-29T14:12:54.684Z,27.37
2022-09-29T14:15:23.052Z,30.37
2022-09-29T14:17:54.674Z,29.46
2022-09-29T14:20:24.966Z,30.66
2022-09-29T14:22:55.618Z,33.27
2022-09-29T14:25:49.040Z,32.67
2022-09-29T14:28:19.425Z,32.83
2022-09-29T14:30:51.581Z,33.94
2022-09-29T14:33:21.152Z,31.98
2022-09-29T14:35:56.057Z,32.17
2022-09-29T14:38:26.593Z,31.68
2022-09-29T14:40:57.268Z,33.12
2022-09-29T14:43:28.001Z,32.72
2022-09-29T14:46:33.948Z,32.60
2022-09-29T14:49:42.484Z,32.12
2022-09-29T14:52:17.292Z,33.49
2022-09-29T14:54:55.381Z,34.14
2022-09-29T14:57:36.817Z,34.32
2022-09-29T15:00:10.935Z,32.65
2022-09-29T15:02:42.962Z,31.64
2022-09-29T15:05:16.162Z,32.57
2022-09-29T15:07:44.299Z,32.02
2022-09-29T15:10:23.176Z,30.91
2022-09-29T15:12:52.302Z,34.11
2022-09-29T15:15:35.338Z,31.27
2022-09-29T15:18:17.326Z,29.97
2022-09-29T15:20:54.858Z,30.81
2022-09-29T15:23:54.370Z,31.96
2022-09-29T15:26:22.149Z,32.38
2022-09-29T15:28:51.289Z,32.19
2022-09-29T15:31:21.011Z,31.58
2022-09-29T15:33:48.993Z,31.41
2022-09-29T15:36:20.662Z,32.34
2022-09-29T15:38:52.901Z,32.19
2022-09-29T15:41:27.457Z,33.07
2022-09-29T15:44:01.977Z,31.65
2022-09-29T15:46:37.176Z,31.68
2022-09-29T15:49:15.808Z,32.44
2022-09-29T15:51:45.351Z,31.42
2022-09-29T15:54:14.494Z,31.06
2022-09-29T15:57:00.345Z,28.30
2022-09-29T15:59:44.783Z,28.87
2022-09-29T16:02:17.574Z,26.65
2022-09-29T16:04:46.115Z,26.68
2022-09-29T16:07:20.218Z,25.83
2022-09-29T16:09:48.218Z,26.88
2022-09-29T16:12:18.599Z,26.32
2022-09-29T16:14:50.083Z,27.57
2022-09-29T16:17:18.049Z,26.66
2022-09-29T16:19:47.279Z,26.94
2022-09-29T16:22:19.383Z,27.72
2022-09-29T16:24:54.292Z,29.97
2022-09-29T16:27:48.738Z,30.33
2022-09-29T16:30:22.840Z,32.42
2022-09-29T16:33:04.428Z,32.83
2022-09-29T16:35:41.483Z,33.99
2022-09-29T16:38:23.704Z,35.25
2022-09-29T16:40:52.162Z,35.93
2022-09-29T16:43:23.966Z,35.93
2022-09-29T16:45:56.463Z,35.29
2022-09-29T16:48:25.302Z,35.92
2022-09-29T16:50:57.277Z,37.65
2022-09-29T16:53:29.963Z,38.33
2022-09-29T16:55:59.590Z,39.30
2022-09-29T16:58:28.318Z,39.49
2022-09-29T17:00:57.715Z,39.28
2022-09-29T17:03:25.580Z,40.80
2022-09-29T17:05:54.241Z,40.39
2022-09-29T17:08:24.367Z,39.94
2022-09-29T17:10:53.141Z,39.93
2022-09-29T17:13:21.186Z,40.88
2022-09-29T17:15:51.510Z,42.42
2022-09-29T17:18:21.980Z,42.34
2022-09-29T17:20:49.702Z,42.69
2022-09-29T17:23:17.509Z,44.77
2022-09-29T17:25:47.194Z,44.11
2022-09-29T17:28:16.199Z,43.70
2022-09-29T17:30:45.814Z,44.68
2022-09-29T17:33:15.899Z,46.88
2022-09-29T17:35:49.161Z,46.90
2022-09-29T17:38:19.500Z,47.71
2022-09-29T17:40:51.418Z,48.70
2022-09-29T17:43:19.718Z,50.32
2022-09-29T17:45:47.964Z,55.16
2022-09-29T17:48:16.305Z,55.52
2022-09-29T17:50:47.570Z,55.06
2022-09-29T17:53:16.656Z,51.68
2022-09-29T17:55:45.431Z,50.80
2022-09-29T17:58:16.008Z,48.54
2022-09-29T18:00:46.954Z,49.30
2022-09-29T18:03:20.548Z,50.02
2022-09-29T18:05:55.793Z,51.02
2022-09-29T18:08:25.168Z,50.75
2022-09-29T18:10:54.543Z,52.01
2022-09-29T18:13:23.175Z,51.27
2022-09-29T18:15:51.000Z,55.40
2022-09-29T18:18:20.694Z,52.84
2022-09-29T18:20:50.611Z,54.45
2022-09-29T18:23:19.334Z,55.06
2022-09-29T18:25:48.821Z,62.19
2022-09-29T18:28:17.362Z,60.26
2022-09-29T18:30:46.984Z,54.11
2022-09-29T18:33:16.275Z,56.15
2022-09-29T18:35:46.374Z,55.13
2022-09-29T18:38:15.447Z,56.33
2022-09-29T18:40:43.861Z,56.14
2022-09-29T18:43:13.593Z,56.65
2022-09-29T18:45:42.290Z,54.02
2022-09-29T18:48:13.244Z,55.53
2022-09-29T18:50:43.930Z,55.84
2022-09-29T18:53:12.774Z,56.90
2022-09-29T18:55:42.587Z,56.18
2022-09-29T18:58:11.549Z,63.04
2022-09-29T19:00:41.422Z,69.59
2022-09-29T19:03:09.200Z,65.62
2022-09-29T19:05:37.093Z,61.69
2022-09-29T19:08:06.866Z,64.18
2022-09-29T19:10:36.634Z,67.87
2022-09-29T19:13:08.245Z,63.58
2022-09-29T19:15:38.506Z,59.08
2022-09-29T19:18:07.474Z,61.92
2022-09-29T19:20:36.156Z,66.54
2022-09-29T19:23:05.529Z,59.25
2022-09-29T19:25:35.514Z,58.98
2022-09-29T19:28:05.677Z,59.46
2022-09-29T19:30:35.066Z,62.70
2022-09-29T19:33:03.577Z,71.74
2022-09-29T19:35:31.315Z,71.91
2022-09-29T19:37:59.484Z,81.78
2022-09-29T19:40:29.077Z,94.28
2022-09-29T19:42:58.469Z,88.30
2022-09-29T19:45:27.701Z,84.88
2022-09-29T19:47:57.275Z,78.26
2022-09-29T19:50:43.433Z,78.78
2022-09-29T19:53:11.259Z,68.62
2022-09-29T19:55:40.294Z,67.32
2022-09-29T19:58:08.348Z,73.05
2022-09-29T20:00:38.382Z,75.85
2022-09-29T20:03:06.169Z,75.25
2022-09-29T20:05:34.025Z,69.86
2022-09-29T20:08:02.889Z,67.72
2022-09-29T20:10:30.995Z,73.09
2022-09-29T20:12:59.280Z,68.35
2022-09-29T20:15:27.080Z,68.56
2022-09-29T20:17:56.148Z,71.41
2022-09-29T20:20:23.923Z,69.40
2022-09-29T20:22:53.364Z,71.28
2022-09-29T20:25:21.306Z,73.21
2022-09-29T20:27:51.188Z,66.30
2022-09-29T20:30:21.385Z,64.34
2022-09-29T20:32:50.670Z,79.39
2022-09-29T20:35:19.704Z,84.83
2022-09-29T20:37:48.669Z,82.45
2022-09-29T20:40:16.579Z,71.62
2022-09-29T20:42:48.735Z,84.95
2022-09-29T20:45:16.956Z,74.70
2022-09-29T20:47:44.665Z,70.67
2022-09-29T20:50:12.409Z,69.55
2022-09-29T20:52:42.566Z,66.90
2022-09-29T20:55:12.014Z,67.79
2022-09-29T20:57:43.990Z,72.14
2022-09-29T21:00:14.374Z,77.07
2022-09-29T21:02:42.178Z,74.46
2022-09-29T21:05:10.057Z,73.11
2022-09-29T21:07:38.302Z,76.30
2022-09-29T21:10:09.922Z,72.15
2022-09-29T21:12:38.915Z,79.53
2022-09-29T21:15:07.339Z,74.77
2022-09-29T21:17:35.069Z,90.49
2022-09-29T21:20:04.005Z,86.80
2022-09-29T21:22:31.726Z,97.90
2022-09-29T21:24:59.419Z,100.00
2022-09-29T21:27:28.970Z,81.08
2022-09-29T21:29:56.691Z,73.19
2022-09-29T21:32:24.498Z,68.40
2022-09-29T21:34:52.455Z,68.01
2022-09-29T21:37:20.199Z,65.84
2022-09-29T21:39:48.005Z,73.79
2022-09-29T21:42:16.134Z,89.69
2022-09-29T21:44:45.254Z,100.00
2022-09-29T21:47:13.428Z,98.00
2022-09-29T21:49:42.902Z,91.61
2022-09-29T21:52:10.626Z,91.63
2022-09-29T21:54:38.723Z,83.21
2022-09-29T21:57:06.812Z,78.80
2022-09-29T21:59:34.562Z,95.82
2022-09-29T22:02:03.708Z,90.22
2022-09-29T22:04:31.488Z,93.52
2022-09-29T22:06:59.540Z,100.00
2022-09-29T22:09:27.496Z,99.84
2022-09-29T22:11:55.253Z,83.87
2022-09-29T22:14:24.386Z,83.86
2022-09-29T22:16:52.155Z,80.21
2022-09-29T22:19:23.683Z,88.60
2022-09-29T22:21:52.477Z,86.99
2022-09-29T22:24:20.186Z,100.00
2022-09-29T22:26:47.914Z,84.10
2022-09-29T22:29:15.850Z,81.30
2022-09-29T22:31:43.791Z,78.36
2022-09-29T22:34:12.062Z,78.03
2022-09-29T22:36:41.173Z,99.63
2022-09-29T22:39:09.299Z,95.23
2022-09-29T22:41:39.642Z,78.69
2022-09-29T22:44:07.811Z,84.25
2022-09-29T22:46:35.894Z,78.44
2022-09-29T22:49:04.353Z,74.20
2022-09-29T22:51:32.731Z,85.84
2022-09-29T22:54:01.815Z,95.47
2022-09-29T22:56:29.641Z,75.52
2022-09-29T22:59:00.834Z,72.06
2022-09-29T23:01:29.106Z,68.12
2022-09-29T23:03:57.009Z,74.65
2022-09-29T23:06:24.773Z,75.00
2022-09-29T23:08:54.305Z,72.73
2022-09-29T23:11:23.439Z,67.44
2022-09-29T23:13:51.996Z,70.15
2022-09-29T23:16:22.172Z,71.63
2022-09-29T23:18:53.939Z,68.80
2022-09-29T23:21:22.357Z,68.52
2022-09-29T23:23:53.520Z,71.08
2022-09-29T23:26:21.280Z,69.64
2022-09-29T23:28:50.466Z,73.23
2022-09-29T23:31:18.225Z,73.67
2022-09-29T23:33:45.969Z,79.08
2022-09-29T23:36:15.181Z,86.83
2022-09-29T23:39:00.976Z,80.82
2022-09-29T23:41:30.069Z,71.40
2022-09-29T23:44:03.174Z,79.99
2022-09-29T23:46:31.538Z,73.86
2022-09-29T23:49:00.001Z,76.81
2022-09-29T23:51:28.170Z,76.99
2022-09-29T23:53:55.896Z,85.86
2022-09-29T23:56:23.660Z,100.00
2022-09-29T23:58:51.436Z,93.16
